createdAt,value
2022-08-05T00:00:02.828Z,20.72
2022-08-05T00:15:53.923Z,20.56
2022-08-05T00:30:03.124Z,20.44
2022-08-05T00:45:05.200Z,20.22
2022-08-05T01:00:03.448Z,20
2022-08-05T01:15:35.365Z,19.89
2022-08-05T01:30:53.834Z,19.83
2022-08-05T01:45:08.663Z,19.78
2022-08-05T02:00:05.390Z,19.78
2022-08-05T02:15:06.773Z,19.72
2022-08-05T02:30:00.771Z,19.61
2022-08-05T02:45:01.875Z,19.44
2022-08-05T03:00:01.835Z,19.28
2022-08-05T03:15:02.835Z,19.11
2022-08-05T03:30:08.388Z,19.06
2022-08-05T03:45:21.707Z,18.94
2022-08-05T04:00:01.789Z,18.78
2022-08-05T04:15:01.912Z,18.72
2022-08-05T04:30:00.100Z,18.72
2022-08-05T04:45:07.342Z,18.89
2022-08-05T05:00:05.601Z,19.28
2022-08-05T05:15:03.695Z,19.89
2022-08-05T05:30:06.590Z,20.44
2022-08-05T05:45:07.620Z,21.17
2022-08-05T06:00:01.082Z,21.67
2022-08-05T06:15:03.810Z,22.11
2022-08-05T06:30:17.846Z,22.67
2022-08-05T06:45:08.340Z,23.39
2022-08-05T07:00:01.253Z,24.11
2022-08-05T07:15:02.152Z,24.72
2022-08-05T07:30:27.961Z,25.33
2022-08-05T07:45:09.335Z,26.06
2022-08-05T08:00:05.238Z,26.89
2022-08-05T08:15:04.793Z,27.39
2022-08-05T08:30:03.873Z,27.89
2022-08-05T08:45:23.173Z,28.39
2022-08-05T09:00:00.492Z,28.83
2022-08-05T09:15:06.222Z,29.5
2022-08-05T09:30:06.698Z,30
2022-08-05T09:45:17.907Z,30.67
2022-08-05T10:00:04.754Z,31.11
2022-08-05T10:15:06.182Z,31.67
2022-08-05T10:31:20.331Z,32.11
2022-08-05T15:15:06.455Z,22.11
2022-08-05T15:30:05.751Z,20.72
2022-08-05T15:45:06.241Z,20.39
2022-08-05T16:00:02.343Z,20.11
2022-08-05T16:14:59.920Z,20.22
2022-08-05T16:30:02.543Z,20.39
2022-08-05T16:46:03.933Z,20.44
2022-08-05T17:00:08.524Z,20.56
2022-08-05T17:15:04.291Z,20.61
2022-08-05T17:30:12.036Z,20.67
2022-08-05T17:45:00.271Z,20.5
2022-08-05T18:00:07.478Z,20.5
2022-08-05T18:15:08.705Z,20.5
2022-08-05T18:30:03.919Z,20.33
2022-08-05T18:45:00.584Z,20.22
2022-08-05T19:00:11.695Z,20.44
2022-08-05T19:15:06.208Z,20.5
2022-08-05T19:30:00.465Z,20.33
2022-08-05T19:45:08.814Z,20.33
2022-08-05T20:00:05.395Z,20.28
2022-08-05T20:15:56.714Z,20.17
2022-08-05T20:30:01.825Z,20.11
2022-08-05T20:44:59.985Z,20.11
2022-08-05T21:00:20.532Z,20.11
2022-08-05T21:15:05.341Z,20.11
2022-08-05T21:30:04.487Z,20.17
2022-08-05T21:45:06.568Z,20.11
2022-08-05T22:00:11.204Z,20.17
2022-08-05T22:15:01.463Z,20.17
2022-08-05T22:30:04.284Z,20.06
2022-08-05T22:45:06.963Z,20
2022-08-05T23:00:03.665Z,20
2022-08-05T23:15:08.982Z,20
2022-08-05T23:30:00.175Z,19.83
2022-08-05T23:45:01.350Z,19.78
